createdAt,value
2022-10-06T00:01:45.931Z,16.36
2022-10-06T00:06:48.362Z,16.48
2022-10-06T00:11:50.759Z,16.71
2022-10-06T00:16:53.109Z,16.86
2022-10-06T00:21:55.476Z,17.08
2022-10-06T00:26:57.906Z,17.44
2022-10-06T00:32:00.232Z,17.70
2022-10-06T00:37:03.333Z,17.66
2022-10-06T00:42:06.000Z,17.77
2022-10-06T00:47:08.933Z,17.88
2022-10-06T00:52:15.090Z,18.18
2022-10-06T00:57:18.777Z,18.25
2022-10-06T01:02:23.796Z,18.08
2022-10-06T01:07:29.603Z,17.91
2022-10-06T01:12:33.751Z,17.84
2022-10-06T01:17:55.276Z,17.92
2022-10-06T01:23:05.742Z,17.76
2022-10-06T01:28:10.729Z,17.62
2022-10-06T01:33:13.303Z,17.64
2022-10-06T01:38:17.692Z,17.97
2022-10-06T01:43:22.641Z,17.95
2022-10-06T01:48:28.413Z,18.06
2022-10-06T01:53:33.750Z,18.09
2022-10-06T01:58:36.343Z,17.94
2022-10-06T02:03:40.077Z,17.54
2022-10-06T02:08:44.521Z,17.55
2022-10-06T02:13:47.957Z,17.10
2022-10-06T02:18:50.568Z,16.69
2022-10-06T02:23:54.986Z,16.30
2022-10-06T02:28:57.384Z,15.74
2022-10-06T02:34:00.453Z,15.36
2022-10-06T02:39:03.144Z,15.44
2022-10-06T02:44:06.076Z,15.69
2022-10-06T02:49:08.593Z,15.21
2022-10-06T02:54:12.467Z,15.01
2022-10-06T02:59:15.404Z,15.25
2022-10-06T03:04:19.294Z,15.58
2022-10-06T03:09:21.975Z,16.29
2022-10-06T03:14:25.212Z,16.68
2022-10-06T03:19:27.735Z,16.10
2022-10-06T03:24:30.499Z,15.62
2022-10-06T03:29:35.120Z,15.30
2022-10-06T03:34:38.728Z,15.07
2022-10-06T03:39:44.370Z,15.04
2022-10-06T03:44:47.619Z,14.79
2022-10-06T03:49:50.148Z,14.63
2022-10-06T03:54:52.705Z,14.67
2022-10-06T03:59:59.222Z,14.75
2022-10-06T04:05:01.787Z,14.90
2022-10-06T04:10:05.749Z,14.97
2022-10-06T04:15:08.791Z,14.83
2022-10-06T04:20:11.835Z,14.89
2022-10-06T04:25:14.355Z,15.03
2022-10-06T04:30:17.178Z,14.91
2022-10-06T04:35:20.537Z,14.87
2022-10-06T04:40:23.188Z,14.76
2022-10-06T04:45:26.129Z,14.54
2022-10-06T04:50:28.598Z,14.60
2022-10-06T04:55:43.492Z,14.85
2022-10-06T05:00:49.308Z,14.94
2022-10-06T05:05:52.660Z,15.31
2022-10-06T05:11:07.251Z,15.48
2022-10-06T05:16:13.530Z,15.64
2022-10-06T05:21:21.111Z,15.56
2022-10-06T05:26:27.042Z,15.23
2022-10-06T05:31:35.255Z,15.04
2022-10-06T05:36:40.319Z,15.16
2022-10-06T05:41:45.276Z,15.40
2022-10-06T05:46:49.293Z,15.44
2022-10-06T05:51:53.221Z,15.30
2022-10-06T05:57:02.148Z,15.42
2022-10-06T06:02:08.919Z,15.37
2022-10-06T06:07:17.710Z,15.32
2022-10-06T06:12:21.693Z,15.61
2022-10-06T06:17:30.711Z,16.00
2022-10-06T06:22:35.447Z,15.89
2022-10-06T06:27:42.155Z,15.72
2022-10-06T06:32:45.040Z,15.73
2022-10-06T06:37:48.871Z,15.84
2022-10-06T06:42:53.826Z,16.06
2022-10-06T06:48:16.668Z,16.42
2022-10-06T06:53:20.780Z,16.67
2022-10-06T06:58:23.775Z,16.56
2022-10-06T07:03:55.579Z,16.64
2022-10-06T07:08:51.237Z,16.97
2022-10-06T07:13:56.255Z,17.14
2022-10-06T07:19:21.307Z,17.35
2022-10-06T07:24:46.143Z,17.47
2022-10-06T07:29:54.472Z,17.65
2022-10-06T07:34:58.787Z,17.77
2022-10-06T07:40:03.867Z,17.78
2022-10-06T07:45:25.440Z,17.77
2022-10-06T07:50:29.105Z,17.84
2022-10-06T07:55:32.757Z,17.61
2022-10-06T08:00:53.149Z,17.92
2022-10-06T08:06:00.362Z,18.07
2022-10-06T08:11:04.533Z,18.38
2022-10-06T08:16:18.383Z,18.33
2022-10-06T08:21:34.649Z,18.34
2022-10-06T08:26:37.261Z,18.45
2022-10-06T08:31:39.662Z,18.39
2022-10-06T08:37:02.222Z,18.33
2022-10-06T08:42:09.442Z,18.20
2022-10-06T08:47:22.719Z,18.20
2022-10-06T08:53:06.661Z,18.50
2022-10-06T08:58:23.346Z,18.68
2022-10-06T09:03:31.487Z,18.74
2022-10-06T09:08:36.790Z,18.81
2022-10-06T09:13:46.000Z,18.90
2022-10-06T09:19:08.221Z,19.01
2022-10-06T09:24:25.470Z,19.05
2022-10-06T09:29:31.293Z,19.27
2022-10-06T09:34:45.687Z,19.44
2022-10-06T09:39:51.090Z,19.79
2022-10-06T09:45:10.936Z,19.97
2022-10-06T09:50:20.070Z,20.22
2022-10-06T09:55:29.063Z,20.14
2022-10-06T10:00:46.478Z,20.17
2022-10-06T10:05:51.730Z,20.02
2022-10-06T10:11:42.290Z,19.95
2022-10-06T10:16:49.665Z,19.88
2022-10-06T10:21:57.706Z,19.87
2022-10-06T10:27:09.257Z,19.82
2022-10-06T10:32:43.057Z,20.00
2022-10-06T10:38:24.781Z,20.39
2022-10-06T10:43:37.369Z,20.20
2022-10-06T10:48:54.776Z,20.38
2022-10-06T10:54:03.757Z,20.66
2022-10-06T10:59:36.078Z,21.17
2022-10-06T11:04:43.467Z,21.45
2022-10-06T11:10:00.913Z,22.76
2022-10-06T11:15:06.576Z,26.65
2022-10-06T11:20:21.465Z,25.71
2022-10-06T11:25:36.950Z,24.34
2022-10-06T11:30:50.735Z,23.09
2022-10-06T11:35:53.340Z,22.73
2022-10-06T11:41:32.040Z,22.40
2022-10-06T11:46:45.052Z,22.30
2022-10-06T11:51:47.835Z,21.88
2022-10-06T11:56:50.290Z,21.74
2022-10-06T12:01:54.847Z,21.78
2022-10-06T12:06:59.282Z,21.60
2022-10-06T12:12:15.011Z,21.77
2022-10-06T12:17:48.589Z,22.35
2022-10-06T12:22:59.921Z,22.04
2022-10-06T12:28:06.150Z,21.63
2022-10-06T12:33:20.713Z,21.68
2022-10-06T12:38:33.151Z,21.66
2022-10-06T12:44:05.537Z,21.27
2022-10-06T12:49:22.134Z,21.14
2022-10-06T12:54:42.597Z,21.03
2022-10-06T12:59:45.172Z,20.74
2022-10-06T13:05:00.281Z,20.76
2022-10-06T13:10:18.406Z,20.72
2022-10-06T13:20:58.737Z,21.35
2022-10-06T13:26:41.079Z,21.53
2022-10-06T13:31:51.901Z,21.23
2022-10-06T13:36:56.105Z,21.08
2022-10-06T13:42:10.516Z,21.21
2022-10-06T13:47:21.463Z,23.09
2022-10-06T13:52:29.004Z,25.85
2022-10-06T13:57:48.187Z,27.07
2022-10-06T14:02:55.214Z,28.94
2022-10-06T14:08:03.981Z,26.35
2022-10-06T14:13:29.281Z,23.94
2022-10-06T14:18:47.286Z,22.74
2022-10-06T14:23:56.196Z,22.10
2022-10-06T14:28:59.065Z,21.72
2022-10-06T14:34:02.708Z,21.46
2022-10-06T14:39:11.043Z,21.31
2022-10-06T14:44:15.664Z,21.22
2022-10-06T14:49:18.263Z,21.07
2022-10-06T14:54:21.722Z,20.95
2022-10-06T14:59:24.891Z,20.90
2022-10-06T15:04:28.330Z,20.90
2022-10-06T15:09:31.398Z,20.81
2022-10-06T15:14:39.419Z,20.67
2022-10-06T15:19:42.119Z,20.54
2022-10-06T15:24:48.783Z,20.34
2022-10-06T15:29:51.255Z,20.18
2022-10-06T15:34:55.226Z,20.10
2022-10-06T15:39:58.166Z,20.22
2022-10-06T15:45:05.127Z,20.14
2022-10-06T15:50:11.372Z,19.98
2022-10-06T15:55:15.436Z,19.82
2022-10-06T16:00:17.875Z,19.68
2022-10-06T16:05:49.473Z,19.45
2022-10-06T16:10:51.947Z,19.37
2022-10-06T16:15:56.229Z,19.23
2022-10-06T16:20:58.739Z,19.13
2022-10-06T16:26:04.810Z,18.99
2022-10-06T16:31:07.395Z,18.93
2022-10-06T16:36:10.887Z,18.86
2022-10-06T16:41:13.292Z,18.79
2022-10-06T16:46:19.238Z,18.77
2022-10-06T16:51:26.888Z,18.42
2022-10-06T16:56:53.826Z,17.99
2022-10-06T17:01:56.311Z,17.85
2022-10-06T17:06:58.720Z,17.83
2022-10-06T17:12:03.174Z,17.54
2022-10-06T17:17:05.862Z,17.28
2022-10-06T17:22:08.331Z,17.13
2022-10-06T17:27:10.671Z,17.11
2022-10-06T17:32:15.227Z,17.20
2022-10-06T17:37:17.672Z,17.20
2022-10-06T17:42:20.026Z,17.37
2022-10-06T17:47:22.415Z,17.53
2022-10-06T17:52:24.899Z,17.50
2022-10-06T17:57:30.454Z,17.46
2022-10-06T18:02:33.287Z,17.65
2022-10-06T18:07:38.118Z,17.63
2022-10-06T18:12:40.800Z,17.22
2022-10-06T18:17:43.360Z,17.27
2022-10-06T18:22:45.737Z,17.33
2022-10-06T18:27:48.110Z,17.16
2022-10-06T18:38:12.852Z,17.07
2022-10-06T18:43:15.242Z,17.26
2022-10-06T18:48:36.494Z,17.40
2022-10-06T18:53:39.126Z,17.36
2022-10-06T18:58:41.832Z,17.05
2022-10-06T19:03:44.256Z,17.01
2022-10-06T19:08:50.634Z,16.95
2022-10-06T19:13:53.907Z,17.28
2022-10-06T19:18:56.339Z,17.15
2022-10-06T19:24:01.782Z,16.80
2022-10-06T19:29:06.664Z,16.60
2022-10-06T19:34:11.880Z,16.48
2022-10-06T19:39:14.261Z,16.55
2022-10-06T19:44:17.149Z,16.57
2022-10-06T19:49:19.646Z,16.49
2022-10-06T19:54:22.549Z,16.48
2022-10-06T19:59:25.370Z,16.38
2022-10-06T20:04:27.804Z,16.09
2022-10-06T20:09:34.078Z,16.29
2022-10-06T20:14:36.824Z,16.33
2022-10-06T20:19:40.141Z,16.02
2022-10-06T20:24:42.561Z,15.73
2022-10-06T20:29:44.969Z,15.91
2022-10-06T20:34:47.341Z,16.59
2022-10-06T20:40:08.188Z,16.58
2022-10-06T20:45:12.144Z,16.31
2022-10-06T20:50:14.745Z,16.45
2022-10-06T20:55:17.365Z,16.44
2022-10-06T21:00:21.952Z,16.29
2022-10-06T21:05:24.305Z,16.22
2022-10-06T21:10:26.708Z,16.38
2022-10-06T21:15:29.112Z,16.40
2022-10-06T21:20:31.466Z,16.35
2022-10-06T21:25:37.910Z,16.47
2022-10-06T21:30:41.098Z,16.61
2022-10-06T21:35:43.451Z,16.28
2022-10-06T21:40:45.878Z,16.19
2022-10-06T21:45:57.027Z,16.09
2022-10-06T21:51:11.662Z,16.08
2022-10-06T21:56:14.109Z,15.93
2022-10-06T22:01:16.523Z,15.90
2022-10-06T22:06:20.109Z,16.09
2022-10-06T22:11:25.556Z,16.30
2022-10-06T22:16:32.555Z,16.02
2022-10-06T22:21:37.359Z,15.85
2022-10-06T22:26:41.870Z,15.94
2022-10-06T22:31:46.381Z,15.68
2022-10-06T22:36:48.829Z,15.68
2022-10-06T22:41:51.131Z,15.54
2022-10-06T22:46:53.607Z,15.44
2022-10-06T22:51:55.966Z,15.16
2022-10-06T22:56:58.421Z,15.37
2022-10-06T23:02:00.789Z,15.54
2022-10-06T23:07:03.240Z,16.11
2022-10-06T23:12:05.857Z,16.18
2022-10-06T23:17:08.221Z,16.35
2022-10-06T23:22:10.537Z,16.22
2022-10-06T23:27:14.316Z,16.42
2022-10-06T23:32:16.930Z,16.74
2022-10-06T23:37:19.377Z,16.15
2022-10-06T23:42:21.718Z,15.98
2022-10-06T23:47:24.146Z,15.96
2022-10-06T23:52:26.477Z,15.90
2022-10-06T23:57:28.795Z,16.36
